createdAt,value
2019-03-18T00:02:21.799Z,6.50
2019-03-18T00:04:50.225Z,6.50
2019-03-18T00:07:18.627Z,6.50
2019-03-18T00:09:47.009Z,6.50
2019-03-18T00:12:17.382Z,6.50
2019-03-18T00:14:45.414Z,6.50
2019-03-18T00:17:13.791Z,6.50
2019-03-18T00:19:43.080Z,6.50
2019-03-18T00:22:11.578Z,6.50
2019-03-18T00:24:40.029Z,6.50
2019-03-18T00:27:08.352Z,6.50
2019-03-18T00:29:36.696Z,6.50
2019-03-18T00:32:05.362Z,6.50
2019-03-18T00:34:36.653Z,6.50
2019-03-18T00:37:05.102Z,6.50
2019-03-18T00:39:33.514Z,6.50
2019-03-18T00:42:01.919Z,6.50
2019-03-18T00:44:30.341Z,6.50
2019-03-18T00:46:58.654Z,6.50
2019-03-18T00:49:27.136Z,6.40
2019-03-18T00:51:55.786Z,6.40
2019-03-18T00:54:24.341Z,6.30
2019-03-18T00:56:52.929Z,6.30
2019-03-18T00:59:21.460Z,6.30
2019-03-18T01:01:49.908Z,6.30
2019-03-18T01:04:18.234Z,6.30
2019-03-18T01:06:46.773Z,6.20
2019-03-18T01:09:15.215Z,6.30
2019-03-18T01:11:43.641Z,6.30
2019-03-18T01:14:12.064Z,6.30
2019-03-18T01:16:40.424Z,6.20
2019-03-18T01:19:08.871Z,6.30
2019-03-18T01:21:37.285Z,6.20
2019-03-18T01:24:05.704Z,6.00
2019-03-18T01:26:34.106Z,6.10
2019-03-18T01:29:02.519Z,6.00
2019-03-18T01:31:30.893Z,5.90
2019-03-18T01:33:59.484Z,5.90
2019-03-18T01:36:27.746Z,5.90
2019-03-18T01:38:56.185Z,5.90
2019-03-18T01:41:24.678Z,6.00
2019-03-18T01:43:53.128Z,6.00
2019-03-18T01:46:21.639Z,6.00
2019-03-18T01:48:52.801Z,6.00
2019-03-18T01:51:21.235Z,5.90
2019-03-18T01:53:49.644Z,6.00
2019-03-18T01:56:17.997Z,6.00
2019-03-18T01:58:46.497Z,6.00
2019-03-18T02:01:15.033Z,6.00
2019-03-18T02:03:43.553Z,6.00
2019-03-18T02:06:11.889Z,6.00
2019-03-18T02:08:40.343Z,6.00
2019-03-18T02:11:08.812Z,6.10
2019-03-18T02:13:37.337Z,6.00
2019-03-18T02:16:05.674Z,6.00
2019-03-18T02:18:34.172Z,6.10
2019-03-18T02:21:02.676Z,6.00
2019-03-18T02:23:31.031Z,6.00
2019-03-18T02:25:59.433Z,6.00
2019-03-18T02:28:27.969Z,6.00
2019-03-18T02:30:56.542Z,5.90
2019-03-18T02:33:24.929Z,6.00
2019-03-18T02:35:53.557Z,6.00
2019-03-18T02:38:21.941Z,6.00
2019-03-18T02:40:50.345Z,6.00
2019-03-18T02:43:18.670Z,5.90
2019-03-18T02:45:47.066Z,5.90
2019-03-18T02:48:15.484Z,5.90
2019-03-18T02:50:43.954Z,5.90
2019-03-18T02:53:12.312Z,5.90
2019-03-18T02:55:40.688Z,5.80
2019-03-18T02:58:09.066Z,5.80
2019-03-18T03:00:37.632Z,5.80
2019-03-18T03:03:06.062Z,5.80
2019-03-18T03:05:34.482Z,5.80
2019-03-18T03:08:05.861Z,5.80
2019-03-18T03:10:34.290Z,5.80
2019-03-18T03:13:02.672Z,5.80
2019-03-18T03:15:33.784Z,5.80
2019-03-18T03:18:02.208Z,5.80
2019-03-18T03:20:30.729Z,5.80
2019-03-18T03:22:59.146Z,5.80
2019-03-18T03:25:27.716Z,5.80
2019-03-18T03:27:56.135Z,5.70
2019-03-18T03:30:24.670Z,5.70
2019-03-18T03:32:53.064Z,5.70
2019-03-18T03:35:21.453Z,5.70
2019-03-18T03:37:49.802Z,5.70
2019-03-18T03:40:18.313Z,5.70
2019-03-18T03:42:46.738Z,5.70
2019-03-18T03:45:17.092Z,5.60
2019-03-18T03:47:45.508Z,5.60
2019-03-18T03:50:14.984Z,5.50
2019-03-18T03:52:43.486Z,5.60
2019-03-18T03:55:12.719Z,5.60
2019-03-18T03:57:41.098Z,5.60
2019-03-18T04:00:19.966Z,5.50
2019-03-18T04:02:48.367Z,5.50
2019-03-18T04:05:16.838Z,5.50
2019-03-18T04:07:45.299Z,5.50
2019-03-18T04:10:14.672Z,5.50
2019-03-18T04:12:43.065Z,5.50
2019-03-18T04:15:17.625Z,5.50
2019-03-18T04:17:46.085Z,5.50
2019-03-18T04:20:15.429Z,5.60
2019-03-18T04:22:43.969Z,5.60
2019-03-18T04:25:12.416Z,5.60
2019-03-18T04:27:40.808Z,5.60
2019-03-18T04:30:15.814Z,5.60
2019-03-18T04:32:44.217Z,5.60
2019-03-18T04:35:12.751Z,5.60
2019-03-18T04:37:41.073Z,5.50
2019-03-18T04:40:10.653Z,5.50
2019-03-18T04:42:39.043Z,5.40
2019-03-18T04:45:08.625Z,5.50
2019-03-18T04:47:37.078Z,5.40
2019-03-18T04:50:10.104Z,5.50
2019-03-18T04:52:38.646Z,5.40
2019-03-18T04:55:07.450Z,5.40
2019-03-18T04:57:35.941Z,5.40
2019-03-18T05:00:07.658Z,5.50
2019-03-18T05:02:38.798Z,5.50
2019-03-18T05:05:07.332Z,5.60
2019-03-18T05:07:35.741Z,5.60
2019-03-18T05:10:06.946Z,5.70
2019-03-18T05:12:35.319Z,5.80
2019-03-18T05:15:05.011Z,5.80
2019-03-18T05:17:33.462Z,5.80
2019-03-18T05:20:01.924Z,5.80
2019-03-18T05:22:30.322Z,5.90
2019-03-18T05:24:58.702Z,5.90
2019-03-18T05:27:27.114Z,5.90
2019-03-18T05:29:55.641Z,6.00
2019-03-18T05:32:24.106Z,5.90
2019-03-18T05:34:52.466Z,6.00
2019-03-18T05:37:20.857Z,5.90
2019-03-18T05:39:49.206Z,6.00
2019-03-18T05:42:17.565Z,6.00
2019-03-18T05:44:45.929Z,6.00
2019-03-18T05:47:14.363Z,6.00
2019-03-18T05:49:42.786Z,6.10
2019-03-18T05:52:11.429Z,6.10
2019-03-18T05:54:39.779Z,6.10
2019-03-18T05:57:08.162Z,6.10
2019-03-18T05:59:36.538Z,6.00
2019-03-18T06:02:04.935Z,6.00
2019-03-18T06:04:33.421Z,6.00
2019-03-18T06:07:01.945Z,6.00
2019-03-18T06:09:30.338Z,6.00
2019-03-18T06:11:58.740Z,6.10
2019-03-18T06:14:27.149Z,6.10
2019-03-18T06:16:55.602Z,6.10
2019-03-18T06:19:24.057Z,6.10
2019-03-18T06:21:52.396Z,6.10
2019-03-18T06:24:20.802Z,6.10
2019-03-18T06:26:49.319Z,6.10
2019-03-18T06:29:17.696Z,6.00
2019-03-18T06:31:46.182Z,6.10
2019-03-18T06:34:14.573Z,6.10
2019-03-18T06:36:42.903Z,6.10
2019-03-18T06:39:11.364Z,6.20
2019-03-18T06:41:39.769Z,6.20
2019-03-18T06:44:08.220Z,6.30
2019-03-18T06:46:36.662Z,6.20
2019-03-18T06:49:05.167Z,6.30
2019-03-18T06:51:33.521Z,6.30
2019-03-18T06:54:02.026Z,6.30
2019-03-18T06:56:30.620Z,6.40
2019-03-18T06:58:59.091Z,6.40
2019-03-18T07:01:27.504Z,6.40
2019-03-18T07:03:55.998Z,6.40
2019-03-18T07:06:24.403Z,6.40
2019-03-18T07:08:52.846Z,6.40
2019-03-18T07:11:21.222Z,6.40
2019-03-18T07:13:49.621Z,6.50
2019-03-18T07:16:18.056Z,6.50
2019-03-18T07:18:46.538Z,6.60
2019-03-18T07:21:15.053Z,6.60
2019-03-18T07:23:43.505Z,6.70
2019-03-18T07:26:12.015Z,6.60
2019-03-18T07:28:40.409Z,6.50
2019-03-18T07:31:08.818Z,6.60
2019-03-18T07:33:37.188Z,6.60
2019-03-18T07:36:05.730Z,6.60
2019-03-18T07:38:34.171Z,6.70
2019-03-18T07:41:02.499Z,6.60
2019-03-18T07:43:31.013Z,6.50
2019-03-18T07:45:59.411Z,6.60
2019-03-18T07:48:31.418Z,6.70
2019-03-18T07:50:57.937Z,6.60
2019-03-18T07:53:26.328Z,6.60
2019-03-18T07:55:55.228Z,6.50
2019-03-18T07:58:23.843Z,6.50
2019-03-18T08:00:52.363Z,6.50
2019-03-18T08:03:21.010Z,6.60
2019-03-18T08:05:49.332Z,6.70
2019-03-18T08:08:17.778Z,6.80
2019-03-18T08:10:46.122Z,6.80
2019-03-18T08:13:14.503Z,6.90
2019-03-18T08:15:42.978Z,7.00
2019-03-18T08:18:11.431Z,7.10
2019-03-18T08:20:39.698Z,7.10
2019-03-18T08:23:08.157Z,7.10
2019-03-18T08:25:41.958Z,7.10
2019-03-18T08:28:10.507Z,7.10
2019-03-18T08:30:38.964Z,7.20
2019-03-18T08:33:07.519Z,7.30
2019-03-18T08:35:36.832Z,7.40
2019-03-18T08:38:05.241Z,7.40
2019-03-18T08:40:33.576Z,7.40
2019-03-18T08:43:01.996Z,7.50
2019-03-18T08:45:30.424Z,7.30
2019-03-18T08:47:58.853Z,7.30
2019-03-18T08:50:27.284Z,7.20
2019-03-18T08:52:55.741Z,7.10
2019-03-18T08:55:24.381Z,7.30
2019-03-18T08:57:52.757Z,7.20
2019-03-18T09:00:21.068Z,7.10
2019-03-18T09:02:49.412Z,7.20
2019-03-18T09:05:17.820Z,7.10
2019-03-18T09:07:46.242Z,7.10
2019-03-18T09:10:15.588Z,7.30
2019-03-18T09:12:44.116Z,7.40
2019-03-18T09:15:12.897Z,7.40
2019-03-18T09:17:41.358Z,7.40
2019-03-18T09:20:16.777Z,7.40
2019-03-18T09:22:45.123Z,7.30
2019-03-18T09:25:13.552Z,7.30
2019-03-18T09:27:41.876Z,7.30
2019-03-18T09:30:16.497Z,7.40
2019-03-18T09:32:45.086Z,7.50
2019-03-18T09:35:13.633Z,7.60
2019-03-18T09:37:42.000Z,7.60
2019-03-18T09:40:17.929Z,7.70
2019-03-18T09:42:46.338Z,7.80
2019-03-18T09:45:18.220Z,7.90
2019-03-18T09:47:46.644Z,7.80
2019-03-18T09:50:15.198Z,7.80
2019-03-18T09:52:45.563Z,8.00
2019-03-18T09:55:13.925Z,8.20
2019-03-18T09:57:42.366Z,8.20
2019-03-18T10:00:19.669Z,8.20
2019-03-18T10:02:48.070Z,8.20
2019-03-18T10:05:16.436Z,8.20
2019-03-18T10:07:44.931Z,8.20
2019-03-18T10:10:13.795Z,8.30
2019-03-18T10:12:42.119Z,8.20
2019-03-18T10:15:12.789Z,8.20
2019-03-18T10:17:41.170Z,8.20
2019-03-18T10:20:10.025Z,8.20
2019-03-18T10:22:38.582Z,8.30
2019-03-18T10:25:07.856Z,8.30
2019-03-18T10:27:37.776Z,8.40
2019-03-18T10:30:07.507Z,8.50
2019-03-18T10:32:35.848Z,8.60
2019-03-18T10:35:05.508Z,8.70
2019-03-18T10:37:33.832Z,8.70
2019-03-18T10:40:02.212Z,8.50
2019-03-18T10:42:30.691Z,8.50
2019-03-18T10:44:59.133Z,8.50
2019-03-18T10:47:27.470Z,8.60
2019-03-18T10:49:55.998Z,8.70
2019-03-18T10:52:24.490Z,8.80
2019-03-18T10:54:52.859Z,8.90
2019-03-18T10:57:21.339Z,9.00
2019-03-18T10:59:49.674Z,9.20
2019-03-18T11:02:18.147Z,9.30
2019-03-18T11:04:46.608Z,9.40
2019-03-18T11:07:15.009Z,9.40
2019-03-18T11:09:43.488Z,9.20
2019-03-18T11:12:11.862Z,9.30
2019-03-18T11:14:40.259Z,9.40
2019-03-18T11:17:08.614Z,9.50
2019-03-18T11:19:37.098Z,9.60
2019-03-18T11:22:05.540Z,9.70
2019-03-18T11:24:33.963Z,9.90
2019-03-18T11:27:02.357Z,9.80
2019-03-18T11:29:30.784Z,9.70
2019-03-18T11:31:59.159Z,9.70
2019-03-18T11:34:27.545Z,9.80
2019-03-18T11:36:55.975Z,9.90
2019-03-18T11:39:24.441Z,9.80
2019-03-18T11:41:53.039Z,9.70
2019-03-18T11:44:21.493Z,9.60
2019-03-18T11:46:49.896Z,9.40
2019-03-18T11:49:18.274Z,9.20
2019-03-18T11:51:46.701Z,9.40
2019-03-18T11:54:15.099Z,9.50
2019-03-18T11:56:43.483Z,9.60
2019-03-18T11:59:11.962Z,9.60
2019-03-18T12:01:40.400Z,9.60
2019-03-18T12:04:08.862Z,9.60
2019-03-18T12:06:37.269Z,9.60
2019-03-18T12:09:06.530Z,9.60
2019-03-18T12:11:34.988Z,9.60
2019-03-18T12:14:03.463Z,9.60
2019-03-18T12:16:31.967Z,9.70
2019-03-18T12:19:00.326Z,9.70
2019-03-18T12:21:28.753Z,9.80
2019-03-18T12:23:57.133Z,9.80
2019-03-18T12:26:25.667Z,9.80
2019-03-18T12:28:54.098Z,9.80
2019-03-18T12:31:22.658Z,9.90
2019-03-18T12:33:51.079Z,10.00
2019-03-18T12:36:19.777Z,10.20
2019-03-18T12:38:48.223Z,10.20
2019-03-18T12:41:16.703Z,10.10
2019-03-18T12:43:45.186Z,10.10
2019-03-18T12:46:13.629Z,10.20
2019-03-18T12:48:42.136Z,10.10
2019-03-18T12:51:11.379Z,10.00
2019-03-18T12:53:40.294Z,9.80
2019-03-18T12:56:08.674Z,9.70
2019-03-18T12:58:37.196Z,9.80
2019-03-18T13:01:12.464Z,10.00
2019-03-18T13:03:35.858Z,10.20
2019-03-18T13:06:06.047Z,10.30
2019-03-18T13:08:34.503Z,10.20
2019-03-18T13:11:05.282Z,10.10
2019-03-18T13:13:33.783Z,10.10
2019-03-18T13:16:02.123Z,9.80
2019-03-18T13:18:30.530Z,9.70
2019-03-18T13:21:07.678Z,9.50
2019-03-18T13:23:28.552Z,9.30
2019-03-18T13:25:58.642Z,9.30
2019-03-18T13:28:27.180Z,9.40
2019-03-18T13:30:55.519Z,9.50
2019-03-18T13:33:23.976Z,9.80
2019-03-18T13:35:52.412Z,10.20
2019-03-18T13:38:20.902Z,10.50
2019-03-18T13:40:49.322Z,10.80
2019-03-18T13:43:17.694Z,11.30
2019-03-18T13:45:55.203Z,11.30
2019-03-18T13:48:16.193Z,11.00
2019-03-18T13:50:44.593Z,10.80
2019-03-18T13:53:13.122Z,10.60
2019-03-18T13:55:41.548Z,10.40
2019-03-18T13:58:10.069Z,10.40
2019-03-18T14:00:38.554Z,10.50
2019-03-18T14:03:07.103Z,10.50
2019-03-18T14:05:35.480Z,10.30
2019-03-18T14:08:03.951Z,10.00
2019-03-18T14:10:32.371Z,10.10
2019-03-18T14:13:00.902Z,10.20
2019-03-18T14:15:29.331Z,10.80
2019-03-18T14:17:57.783Z,10.90
2019-03-18T14:20:27.572Z,10.60
2019-03-18T14:22:56.114Z,10.60
2019-03-18T14:25:24.698Z,10.50
2019-03-18T14:27:53.198Z,11.00
2019-03-18T14:30:22.522Z,11.70
2019-03-18T14:32:51.004Z,12.20
2019-03-18T14:35:21.683Z,12.00
2019-03-18T14:37:49.636Z,11.50
2019-03-18T14:40:21.631Z,11.10
2019-03-18T14:42:49.962Z,10.90
2019-03-18T14:45:24.646Z,10.80
2019-03-18T14:47:53.047Z,11.10
2019-03-18T14:50:21.467Z,11.00
2019-03-18T14:52:50.050Z,11.20
2019-03-18T14:55:18.847Z,11.20
2019-03-18T14:57:47.384Z,11.30
2019-03-18T15:00:23.296Z,11.30
2019-03-18T15:02:51.598Z,11.60
2019-03-18T15:05:20.147Z,11.70
2019-03-18T15:07:48.610Z,11.70
2019-03-18T15:10:19.623Z,11.20
2019-03-18T15:12:48.320Z,11.10
2019-03-18T15:15:17.829Z,11.50
2019-03-18T15:17:47.824Z,11.80
2019-03-18T15:20:21.143Z,12.20
2019-03-18T15:22:49.613Z,12.50
2019-03-18T15:25:29.632Z,12.70
2019-03-18T15:27:58.173Z,12.30
2019-03-18T15:30:26.551Z,11.50
2019-03-18T15:32:55.137Z,11.10
2019-03-18T15:35:23.660Z,10.60
2019-03-18T15:37:52.143Z,10.20
2019-03-18T15:40:24.814Z,9.60
2019-03-18T15:42:53.342Z,9.30
2019-03-18T15:45:22.329Z,9.00
2019-03-18T15:47:50.707Z,8.70
2019-03-18T15:50:24.853Z,8.40
2019-03-18T15:52:53.161Z,8.20
2019-03-18T15:55:24.109Z,7.90
2019-03-18T15:57:51.859Z,7.80
2019-03-18T16:00:25.468Z,8.10
2019-03-18T16:02:53.995Z,8.70
2019-03-18T16:05:22.478Z,9.20
2019-03-18T16:07:50.907Z,9.30
2019-03-18T16:10:20.250Z,9.50
2019-03-18T16:12:48.641Z,9.50
2019-03-18T16:15:17.853Z,9.40
2019-03-18T16:17:46.277Z,9.10
2019-03-18T16:20:22.946Z,8.80
2019-03-18T16:22:51.312Z,8.60
2019-03-18T16:25:19.736Z,8.50
2019-03-18T16:27:48.060Z,8.40
2019-03-18T16:30:18.569Z,8.30
2019-03-18T16:32:47.021Z,8.30
2019-03-18T16:35:16.512Z,8.30
2019-03-18T16:37:45.101Z,8.00
2019-03-18T16:40:14.976Z,8.00
2019-03-18T16:42:43.435Z,7.90
2019-03-18T16:45:14.499Z,7.90
2019-03-18T16:47:42.891Z,7.80
2019-03-18T16:50:14.116Z,7.90
2019-03-18T16:52:42.470Z,7.90
2019-03-18T16:55:11.075Z,7.80
2019-03-18T16:57:39.617Z,7.70
2019-03-18T17:00:11.230Z,7.80
2019-03-18T17:02:39.818Z,7.80
2019-03-18T17:05:08.558Z,7.80
2019-03-18T17:07:36.909Z,7.70
2019-03-18T17:10:08.764Z,7.70
2019-03-18T17:12:37.143Z,7.80
2019-03-18T17:15:08.343Z,7.80
2019-03-18T17:17:36.697Z,7.90
2019-03-18T17:20:10.344Z,7.90
2019-03-18T17:22:48.201Z,8.00
2019-03-18T17:25:11.580Z,8.00
2019-03-18T17:27:40.022Z,8.10
2019-03-18T17:30:13.968Z,8.10
2019-03-18T17:32:42.401Z,8.10
2019-03-18T17:35:10.827Z,8.10
2019-03-18T17:37:39.179Z,7.90
2019-03-18T17:40:13.008Z,7.70
2019-03-18T17:42:41.444Z,7.60
2019-03-18T17:45:11.899Z,7.30
2019-03-18T17:47:40.304Z,6.70
2019-03-18T17:50:24.043Z,6.00
2019-03-18T17:53:02.570Z,5.70
2019-03-18T17:55:22.508Z,5.50
2019-03-18T17:57:50.946Z,5.50
2019-03-18T18:00:24.027Z,5.50
2019-03-18T18:02:52.910Z,5.40
2019-03-18T18:05:21.581Z,5.50
2019-03-18T18:07:52.871Z,5.60
2019-03-18T18:10:21.274Z,5.60
2019-03-18T18:12:49.705Z,5.70
2019-03-18T18:15:18.133Z,5.80
2019-03-18T18:17:46.570Z,5.90
2019-03-18T18:20:17.656Z,5.90
2019-03-18T18:22:46.058Z,6.00
2019-03-18T18:25:15.577Z,6.10
2019-03-18T18:27:44.116Z,6.10
2019-03-18T18:30:14.260Z,6.20
2019-03-18T18:32:42.613Z,6.30
2019-03-18T18:35:11.571Z,6.40
2019-03-18T18:37:39.948Z,6.50
2019-03-18T18:40:17.048Z,6.50
2019-03-18T18:42:45.550Z,6.60
2019-03-18T18:45:13.887Z,6.60
2019-03-18T18:47:42.302Z,6.60
2019-03-18T18:50:19.351Z,6.60
2019-03-18T18:52:47.846Z,6.70
2019-03-18T18:55:16.346Z,6.70
2019-03-18T18:57:44.787Z,6.70
2019-03-18T19:00:17.975Z,6.70
2019-03-18T19:02:46.406Z,6.80
2019-03-18T19:05:15.594Z,6.80
2019-03-18T19:07:43.982Z,6.80
2019-03-18T19:10:17.561Z,6.80
2019-03-18T19:12:45.992Z,6.70
2019-03-18T19:15:29.166Z,6.70
2019-03-18T19:17:57.632Z,6.70
2019-03-18T19:20:26.131Z,6.70
2019-03-18T19:22:59.187Z,6.70
2019-03-18T19:25:30.597Z,6.70
2019-03-18T19:28:03.259Z,6.70
2019-03-18T19:30:34.073Z,6.60
2019-03-18T19:33:07.119Z,6.60
2019-03-18T19:35:39.250Z,6.70
2019-03-18T19:38:07.581Z,6.70
2019-03-18T19:40:36.099Z,6.70
2019-03-18T19:43:04.532Z,6.60
2019-03-18T19:45:33.017Z,6.70
2019-03-18T19:48:01.401Z,6.70
2019-03-18T19:50:33.077Z,6.70
2019-03-18T19:53:01.469Z,6.70
2019-03-18T19:55:29.932Z,6.70
2019-03-18T19:57:58.289Z,6.80
2019-03-18T20:00:31.255Z,6.70
2019-03-18T20:02:59.887Z,6.60
2019-03-18T20:05:28.340Z,6.70
2019-03-18T20:07:56.745Z,6.70
2019-03-18T20:10:25.172Z,6.70
2019-03-18T20:12:53.568Z,6.70
2019-03-18T20:15:22.052Z,6.60
2019-03-18T20:17:50.434Z,6.60
2019-03-18T20:20:21.170Z,6.60
2019-03-18T20:22:52.323Z,6.60
2019-03-18T20:25:20.878Z,6.50
2019-03-18T20:27:49.372Z,6.50
2019-03-18T20:30:22.531Z,6.40
2019-03-18T20:32:50.964Z,6.30
2019-03-18T20:35:24.370Z,6.40
2019-03-18T20:37:52.797Z,6.40
2019-03-18T20:40:21.429Z,6.40
2019-03-18T20:42:49.962Z,6.40
2019-03-18T20:45:23.738Z,6.30
2019-03-18T20:47:52.091Z,6.20
2019-03-18T20:50:25.338Z,6.20
2019-03-18T20:52:53.810Z,6.20
2019-03-18T20:55:22.326Z,6.20
2019-03-18T20:57:50.754Z,6.20
2019-03-18T21:00:21.466Z,6.20
2019-03-18T21:02:52.571Z,6.20
2019-03-18T21:05:21.112Z,6.20
2019-03-18T21:07:49.774Z,6.20
2019-03-18T21:10:20.118Z,6.20
2019-03-18T21:12:48.603Z,6.20
2019-03-18T21:15:17.576Z,6.30
2019-03-18T21:17:46.078Z,6.20
2019-03-18T21:20:20.131Z,6.30
2019-03-18T21:22:48.479Z,6.30
2019-03-18T21:25:16.930Z,6.30
2019-03-18T21:27:45.325Z,6.30
2019-03-18T21:30:15.635Z,6.30
2019-03-18T21:32:43.310Z,6.20
2019-03-18T21:35:11.656Z,6.30
2019-03-18T21:37:40.034Z,6.10
2019-03-18T21:40:16.089Z,6.10
2019-03-18T21:42:44.488Z,6.10
2019-03-18T21:45:23.638Z,6.10
2019-03-18T21:47:52.489Z,6.10
2019-03-18T21:50:20.992Z,6.00
2019-03-18T21:52:49.424Z,6.00
2019-03-18T21:55:17.842Z,6.10
2019-03-18T21:57:46.220Z,6.00
2019-03-18T22:00:17.399Z,6.00
2019-03-18T22:02:45.880Z,5.90
2019-03-18T22:05:14.558Z,5.80
2019-03-18T22:07:42.969Z,5.90
2019-03-18T22:10:16.359Z,5.80
2019-03-18T22:12:44.736Z,5.90
2019-03-18T22:15:13.992Z,5.90
2019-03-18T22:17:43.209Z,5.90
2019-03-18T22:20:14.012Z,5.80
2019-03-18T22:22:42.423Z,5.90
2019-03-18T22:25:12.503Z,6.00
2019-03-18T22:27:41.006Z,5.90
2019-03-18T22:30:16.807Z,6.00
2019-03-18T22:32:45.207Z,6.00
2019-03-18T22:35:13.750Z,6.00
2019-03-18T22:37:42.283Z,6.00
2019-03-18T22:40:12.144Z,6.00
2019-03-18T22:42:40.523Z,6.00
2019-03-18T22:45:14.175Z,5.90
2019-03-18T22:47:42.606Z,6.00
2019-03-18T22:50:19.689Z,6.00
2019-03-18T22:52:48.126Z,6.00
2019-03-18T22:55:16.664Z,6.00
2019-03-18T22:57:45.094Z,6.00
2019-03-18T23:00:26.866Z,6.00
2019-03-18T23:02:55.413Z,6.00
2019-03-18T23:05:23.955Z,6.00
2019-03-18T23:07:52.490Z,6.10
2019-03-18T23:10:20.919Z,6.00
2019-03-18T23:12:49.525Z,6.00
2019-03-18T23:15:17.915Z,6.20
2019-03-18T23:17:46.432Z,6.20
2019-03-18T23:20:14.798Z,6.20
2019-03-18T23:22:43.191Z,6.20
2019-03-18T23:25:11.574Z,6.20
2019-03-18T23:27:40.037Z,6.20
2019-03-18T23:30:13.369Z,6.20
2019-03-18T23:32:41.833Z,6.10
2019-03-18T23:35:13.043Z,6.10
2019-03-18T23:37:41.734Z,6.10
2019-03-18T23:40:11.895Z,6.10
2019-03-18T23:42:39.778Z,6.00
2019-03-18T23:45:09.450Z,6.10
2019-03-18T23:47:37.937Z,6.10
2019-03-18T23:50:09.450Z,6.00
2019-03-18T23:52:37.996Z,6.10
2019-03-18T23:55:18.149Z,6.20
2019-03-18T23:57:38.761Z,6.00
